Etihad Airways Virtual Airport Information Service

Bahrain International Airport

ICAO: OBBI Country: Bahrain
Latitude: 26.2708 Longitude: 50.6336
Latest Arrival : GFA503 (OMDB-OBBI) Latest Departure : GFA213 (OBBI-OKBK)


WX CaptureLIVE
Data provided by noaa.gov | Recorded at 16:56:28

METAR : OBBI 081630Z 01003KT 340V080 8000 NSC 36/28 Q0994 NOSIG

TAF : OBBI 081100Z 0812/0918 34010KT CAVOK BECMG 0814/0816 VRB05KT BECMG 0908/0910 35010KT


Runway Data for OBBI
Data provided by openaviationdata.com

Runway ID Mag Var Hdg Length Elevation Surface ILS Freq ILS Id ILS Slope

Bahrain International Airport, Bahrain
Use only for reference purposes